Time;durP1;ratioP1;P1;durP2;ratioP2;P2;SDS_P1;SDS_P2;PMS_P1;PMS_P2;Temp;Humidity;BMP_temperature;BMP_pressure;BME280_temperature;BME280_humidity;BME280_pressure;Samples;Min_cycle;Max_cycle;Signal;HPM_P1;HPM_P2
2021/10/25 00:01:09;;;;;;;17.88;10.73;;;;;;;2.01;100.00;95744.28;5034433;28;20500;-60
2021/10/25 00:03:35;;;;;;;16.25;10.18;;;;;;;2.01;100.00;95743.47;5017055;28;20404;-60
2021/10/25 00:06:02;;;;;;;17.17;10.80;;;;;;;2.02;100.00;95742.47;5051153;28;20033;-60
2021/10/25 00:08:31;;;;;;;14.15;9.43;;;;;;;2.03;100.00;95730.88;5017691;28;20024;-60
2021/10/25 00:10:56;;;;;;;15.00;9.80;;;;;;;2.02;100.00;95739.81;5051822;28;20108;-60
2021/10/25 00:13:22;;;;;;;13.07;9.32;;;;;;;2.00;100.00;95737.38;5034541;28;20480;-58
2021/10/25 00:15:47;;;;;;;11.73;8.88;;;;;;;2.03;100.00;95736.16;5051420;28;20070;-59
2021/10/25 00:18:12;;;;;;;11.77;8.98;;;;;;;2.08;100.00;95736.41;5051779;28;20024;-60
2021/10/25 00:20:44;;;;;;;14.27;8.85;;;;;;;2.09;100.00;95734.59;5017246;28;20029;-59
2021/10/25 00:23:18;;;;;;;13.25;8.57;;;;;;;2.10;100.00;95736.22;5051738;28;20032;-60
2021/10/25 00:25:44;;;;;;;14.77;9.77;;;;;;;2.12;100.00;95735.00;5051552;28;20029;-58
2021/10/25 00:28:17;;;;;;;14.05;8.65;;;;;;;2.14;100.00;95724.22;5033973;28;20116;-60
2021/10/25 00:30:43;;;;;;;15.07;9.90;;;;;;;2.17;100.00;95732.59;5033453;28;20375;-58
2021/10/25 00:33:14;;;;;;;13.38;8.98;;;;;;;2.16;100.00;95730.94;5051502;28;20105;-59
2021/10/25 00:35:40;;;;;;;13.05;8.52;;;;;;;-144.43;100.00;64487.81;5051138;28;20498;-60
2021/10/25 00:38:05;;;;;;;14.18;9.40;;;;;;;-144.43;100.00;64487.81;5051608;28;20112;-60
2021/10/25 00:40:37;;;;;;;14.63;9.60;;;;;;;-144.43;100.00;64487.81;5051655;28;20460;-60
2021/10/25 00:43:02;;;;;;;12.95;8.45;;;;;;;-144.43;100.00;64487.81;5051238;28;20063;-60
2021/10/25 00:45:31;;;;;;;12.25;9.20;;;;;;;-144.43;100.00;64487.81;5032806;28;20503;-60
2021/10/25 00:47:57;;;;;;;13.35;8.43;;;;;;;-144.43;100.00;64487.81;5040077;28;20032;-60
2021/10/25 00:50:25;;;;;;;15.18;8.93;;;;;;;-144.43;100.00;64487.81;5051072;28;20031;-60
2021/10/25 00:52:53;;;;;;;15.80;9.95;;;;;;;-144.43;100.00;64487.81;5051197;28;20464;-60
2021/10/25 00:55:19;;;;;;;14.70;9.57;;;;;;;-144.43;100.00;64487.81;5050851;28;20483;-60
2021/10/25 00:57:45;;;;;;;13.30;9.13;;;;;;;-144.43;100.00;64487.81;5051119;28;20086;-60
2021/10/25 01:00:11;;;;;;;14.93;9.00;;;;;;;-144.43;100.00;64487.81;5050984;28;20052;-61
2021/10/25 01:02:40;;;;;;;13.13;9.02;;;;;;;-144.43;100.00;64487.81;5050996;28;20115;-60
2021/10/25 01:05:08;;;;;;;14.60;9.57;;;;;;;-144.43;100.00;64487.81;5033356;28;20032;-60
2021/10/25 01:07:38;;;;;;;14.13;8.98;;;;;;;-144.43;100.00;64487.81;5049922;28;20032;-59
2021/10/25 01:10:04;;;;;;;11.70;8.85;;;;;;;-144.43;100.00;64487.81;5033178;28;20045;-58
2021/10/25 01:12:30;;;;;;;12.82;8.77;;;;;;;-144.43;100.00;64487.81;5050892;28;20062;-60
2021/10/25 01:14:56;;;;;;;13.13;8.50;;;;;;;-144.43;100.00;64487.81;5032773;28;20029;-60
2021/10/25 01:17:21;;;;;;;14.35;9.23;;;;;;;-144.43;100.00;64487.81;5050792;28;20095;-59
2021/10/25 01:19:52;;;;;;;13.45;9.80;;;;;;;-144.43;100.00;64487.81;5050972;28;20090;-59
2021/10/25 01:22:23;;;;;;;12.63;8.57;;;;;;;-144.43;100.00;64487.81;5033118;28;20510;-59
2021/10/25 01:24:53;;;;;;;13.38;9.68;;;;;;;-144.43;100.00;64487.81;5050048;28;20033;-59
2021/10/25 01:27:22;;;;;;;13.23;9.95;;;;;;;-144.43;100.00;64487.81;5051027;28;20032;-60
2021/10/25 01:29:51;;;;;;;16.25;9.73;;;;;;;-144.43;100.00;64487.81;5050826;28;20024;-57
2021/10/25 01:32:16;;;;;;;13.25;9.00;;;;;;;-144.43;100.00;64487.81;5050804;28;20057;-60
2021/10/25 01:34:42;;;;;;;13.60;9.32;;;;;;;-144.43;100.00;64487.81;5050605;28;20470;-59
2021/10/25 01:37:14;;;;;;;13.52;9.15;;;;;;;-144.43;100.00;64487.81;5032976;28;20029;-60
2021/10/25 01:39:48;;;;;;;12.60;8.05;;;;;;;-144.43;100.00;64487.81;5050627;28;20037;-60
2021/10/25 01:42:14;;;;;;;13.05;8.88;;;;;;;-144.43;100.00;64487.81;5032784;28;20471;-61
2021/10/25 01:44:39;;;;;;;12.20;8.20;;;;;;;-144.43;100.00;64487.81;5050398;28;20033;-61
2021/10/25 01:47:05;;;;;;;12.00;8.00;;;;;;;-144.43;100.00;64487.81;5029129;28;20510;-60
2021/10/25 01:49:37;;;;;;;9.90;7.25;;;;;;;-144.43;100.00;64487.81;5040903;28;20486;-59
2021/10/25 01:52:03;;;;;;;10.73;7.45;;;;;;;-144.43;100.00;64487.81;5049877;28;20068;-59
2021/10/25 01:54:28;;;;;;;13.98;8.07;;;;;;;-144.43;100.00;64487.81;5046032;28;20043;-60
2021/10/25 01:56:56;;;;;;;11.20;7.70;;;;;;;-144.43;100.00;64487.81;5050668;28;20115;-61
2021/10/25 01:59:22;;;;;;;13.38;7.75;;;;;;;-144.43;100.00;64487.81;5050772;28;20403;-61
2021/10/25 02:01:47;;;;;;;10.80;8.15;;;;;;;-144.43;100.00;64487.81;5050189;28;20029;-61
2021/10/25 02:04:13;;;;;;;11.68;8.13;;;;;;;-144.43;100.00;64487.81;5032530;28;20040;-61
2021/10/25 02:06:38;;;;;;;11.55;8.00;;;;;;;-144.43;100.00;64487.81;5032312;28;20136;-61
2021/10/25 02:09:15;;;;;;;12.52;8.73;;;;;;;-144.43;100.00;64487.81;5032953;28;20033;-61
2021/10/25 02:11:41;;;;;;;13.27;9.10;;;;;;;-144.43;100.00;64487.81;5050586;28;20053;-61
2021/10/25 02:14:09;;;;;;;14.18;9.30;;;;;;;-144.43;100.00;64487.81;5032120;28;20491;-59
2021/10/25 02:16:44;;;;;;;12.48;8.60;;;;;;;-144.43;100.00;64487.81;5050369;28;20025;-60
2021/10/25 02:19:10;;;;;;;11.52;7.85;;;;;;;-144.43;100.00;64487.81;5050045;28;20033;-58
2021/10/25 02:21:36;;;;;;;10.95;7.72;;;;;;;-144.43;100.00;64487.81;5034636;28;20408;-60
2021/10/25 02:24:02;;;;;;;12.27;8.63;;;;;;;-144.43;100.00;64487.81;5054082;28;20032;-60
2021/10/25 02:26:28;;;;;;;13.60;8.10;;;;;;;-144.43;100.00;64487.81;5053775;28;20506;-60
2021/10/25 02:28:56;;;;;;;13.00;8.25;;;;;;;-144.43;100.00;64487.81;5036068;28;20021;-60
2021/10/25 02:31:21;;;;;;;11.48;7.68;;;;;;;-144.43;100.00;64487.81;5053621;28;20083;-60
2021/10/25 02:33:49;;;;;;;12.38;7.78;;;;;;;-144.43;100.00;64487.81;5053723;28;20032;-60
2021/10/25 02:36:15;;;;;;;10.48;7.10;;;;;;;-144.43;100.00;64487.81;5053741;28;20471;-61
2021/10/25 02:38:40;;;;;;;9.30;6.63;;;;;;;-144.43;100.00;64487.81;5036099;28;20078;-60
2021/10/25 02:41:08;;;;;;;9.75;6.80;;;;;;;-144.43;100.00;64487.81;5053635;28;20031;-61
2021/10/25 02:43:34;;;;;;;12.73;7.50;;;;;;;-144.43;100.00;64487.81;5019422;28;20025;-61
2021/10/25 02:46:03;;;;;;;10.02;7.18;;;;;;;-144.43;100.00;64487.81;5053263;28;20315;-61
2021/10/25 02:48:29;;;;;;;9.93;6.85;;;;;;;-144.43;100.00;64487.81;5035706;28;20047;-60
2021/10/25 02:50:57;;;;;;;11.00;6.80;;;;;;;-144.43;100.00;64487.81;5035449;28;20492;-61
2021/10/25 02:53:23;;;;;;;9.70;7.13;;;;;;;-144.43;100.00;64487.81;5053558;28;20029;-60
2021/10/25 02:55:48;;;;;;;8.93;6.55;;;;;;;-144.43;100.00;64487.81;5035650;28;20475;-60
2021/10/25 02:58:17;;;;;;;10.40;6.82;;;;;;;-144.43;100.00;64487.81;5035668;28;20501;-61
2021/10/25 03:00:43;;;;;;;10.20;7.78;;;;;;;-144.43;100.00;64487.81;5035149;28;20368;-61
2021/10/25 03:03:08;;;;;;;13.10;7.20;;;;;;;-144.43;100.00;64487.81;5053268;28;20031;-57
2021/10/25 03:05:35;;;;;;;10.57;7.18;;;;;;;-144.43;100.00;64487.81;5035200;28;20114;-59
2021/10/25 03:08:00;;;;;;;10.50;7.68;;;;;;;1.81;100.00;95584.06;5035293;28;20047;-59
2021/10/25 03:10:29;;;;;;;11.93;8.35;;;;;;;1.82;100.00;95602.34;5053128;28;20024;-60
2021/10/25 03:12:55;;;;;;;11.93;7.90;;;;;;;1.84;100.00;95612.72;5035112;28;20024;-59
2021/10/25 03:15:20;;;;;;;10.00;7.13;;;;;;;1.83;100.00;95622.47;5051217;28;20032;-59
2021/10/25 03:17:51;;;;;;;11.05;7.53;;;;;;;1.81;100.00;95629.78;5035499;28;20025;-60
2021/10/25 03:20:17;;;;;;;11.50;7.38;;;;;;;1.80;100.00;95632.63;5053003;28;20033;-60
2021/10/25 03:22:42;;;;;;;10.13;7.05;;;;;;;1.81;100.00;95639.53;5053006;28;20502;-60
2021/10/25 03:25:09;;;;;;;11.43;7.72;;;;;;;1.81;100.00;95644.81;5034715;28;20039;-61
2021/10/25 03:27:35;;;;;;;14.77;8.02;;;;;;;1.82;100.00;95649.09;5052612;28;20107;-60
2021/10/25 03:30:18;;;;;;;10.32;7.22;;;;;;;1.82;100.00;95643.81;5034713;28;20391;-58
2021/10/25 03:32:46;;;;;;;10.68;7.07;;;;;;;-144.43;100.00;64487.81;5053349;28;20079;-61
2021/10/25 03:35:15;;;;;;;9.00;6.95;;;;;;;-144.43;100.00;64487.81;5052892;28;20311;-61
2021/10/25 03:37:40;;;;;;;10.95;7.75;;;;;;;-144.43;100.00;64487.81;5052715;28;20028;-61
2021/10/25 03:40:06;;;;;;;12.00;7.97;;;;;;;-144.43;100.00;64487.81;5034580;28;20546;-60
2021/10/25 03:42:47;;;;;;;10.48;7.28;;;;;;;-144.43;100.00;64487.81;5034163;28;20021;-61
2021/10/25 03:47:53;;;;;;;9.43;6.88;;;;;;;-144.43;100.00;64487.81;5044541;28;20037;-61
2021/10/25 03:50:24;;;;;;;12.00;7.88;;;;;;;-144.43;100.00;64487.81;5032242;28;20037;-60
2021/10/25 03:55:33;;;;;;;11.43;7.50;;;;;;;-144.43;100.00;64487.81;5052219;28;20039;-60
2021/10/25 04:25:22;;;;;;;13.85;7.88;;;;;;;1.76;100.00;95628.75;5030752;28;20400;-61
2021/10/25 04:30:15;;;;;;;12.40;7.93;;;;;;;1.76;100.00;95634.84;5051940;28;20025;-60
2021/10/25 04:32:40;;;;;;;11.10;7.75;;;;;;;1.77;100.00;95633.03;5051565;28;20503;-60
2021/10/25 04:35:06;;;;;;;11.27;7.80;;;;;;;1.78;100.00;95629.38;5033554;28;20072;-57
2021/10/25 04:37:35;;;;;;;14.73;9.43;;;;;;;1.86;100.00;95622.09;5051662;28;20032;-61
2021/10/25 04:40:05;;;;;;;12.80;8.32;;;;;;;1.97;100.00;95626.00;5017089;28;20083;-61
2021/10/25 04:42:34;;;;;;;12.77;8.82;;;;;;;2.02;100.00;95621.75;5051210;28;20028;-61
2021/10/25 04:45:02;;;;;;;11.98;8.35;;;;;;;2.06;100.00;95618.69;5032544;28;20120;-60
2021/10/25 04:47:35;;;;;;;14.68;8.07;;;;;;;2.08;100.00;95617.50;5051361;28;20017;-61
2021/10/25 04:50:04;;;;;;;14.43;8.75;;;;;;;2.10;100.00;95622.59;5051320;28;20024;-60
2021/10/25 04:52:30;;;;;;;13.60;8.63;;;;;;;2.10;100.00;95614.66;5017238;28;20044;-54
2021/10/25 04:54:55;;;;;;;13.95;8.90;;;;;;;2.08;100.00;95621.97;5050691;28;20025;-55
2021/10/25 04:57:21;;;;;;;11.65;7.85;;;;;;;2.06;100.00;95624.78;5049807;28;20033;-56
2021/10/25 04:59:47;;;;;;;12.05;8.32;;;;;;;2.05;100.00;95644.31;5051506;28;20468;-59
2021/10/25 05:02:12;;;;;;;10.68;8.05;;;;;;;2.03;100.00;95641.84;5033348;28;20021;-55
2021/10/25 05:04:41;;;;;;;12.25;8.40;;;;;;;2.01;100.00;95638.59;5050818;28;20086;-57
2021/10/25 05:07:12;;;;;;;11.27;7.40;;;;;;;2.03;100.00;95625.19;5051538;28;20539;-55
2021/10/25 05:09:40;;;;;;;14.15;9.05;;;;;;;2.21;100.00;95612.25;5050850;28;20062;-56
2021/10/25 05:12:12;;;;;;;14.15;9.23;;;;;;;2.28;100.00;95613.09;5050571;28;20048;-55
2021/10/25 05:14:42;;;;;;;13.10;8.93;;;;;;;2.32;100.00;95603.72;5050677;28;20028;-53
2021/10/25 05:17:07;;;;;;;11.93;7.80;;;;;;;2.35;100.00;95599.88;5051025;28;20036;-52
2021/10/25 05:19:33;;;;;;;12.95;7.90;;;;;;;2.30;100.00;95587.25;5029842;28;20025;-52
2021/10/25 05:21:58;;;;;;;10.63;7.13;;;;;;;2.26;100.00;95587.84;5041647;28;20025;-56
2021/10/25 05:24:23;;;;;;;11.73;6.97;;;;;;;2.25;100.00;95586.22;5022915;28;20048;-59
2021/10/25 05:26:49;;;;;;;14.68;8.40;;;;;;;2.20;100.00;95591.31;5036674;28;20025;-51
2021/10/25 05:29:17;;;;;;;12.70;8.77;;;;;;;2.12;100.00;95602.88;5013597;28;20075;-56
2021/10/25 05:31:45;;;;;;;10.80;6.40;;;;;;;2.06;100.00;95608.13;5028544;28;20021;-55
2021/10/25 05:34:13;;;;;;;10.15;6.43;;;;;;;1.97;100.00;95607.50;5047904;28;20416;-55
2021/10/25 05:36:40;;;;;;;10.02;6.13;;;;;;;1.92;100.00;95597.53;5033182;28;20028;-56
2021/10/25 05:39:08;;;;;;;15.07;7.05;;;;;;;1.90;100.00;95593.44;4981718;28;20160;-62
2021/10/25 05:41:35;;;;;;;9.32;6.45;;;;;;;1.90;100.00;95598.75;5009974;28;20029;-57
2021/10/25 05:44:00;;;;;;;20.52;10.75;;;;;;;1.87;100.00;95597.31;5019191;28;20416;-56
2021/10/25 05:46:26;;;;;;;12.18;7.97;;;;;;;1.81;100.00;95597.28;5026257;28;20040;-55
2021/10/25 05:48:52;;;;;;;9.65;6.15;;;;;;;1.78;100.00;95603.78;4991897;28;20034;-55
2021/10/25 05:51:18;;;;;;;10.05;5.70;;;;;;;1.67;100.00;95607.78;5012106;28;20501;-54
2021/10/25 05:53:45;;;;;;;9.25;6.25;;;;;;;1.59;100.00;95610.59;5027838;28;20080;-60
2021/10/25 05:56:11;;;;;;;11.60;6.60;;;;;;;1.58;100.00;95616.06;5012721;28;20349;-54
2021/10/25 05:58:36;;;;;;;8.38;5.88;;;;;;;1.55;100.00;95608.56;5031090;28;20064;-59
2021/10/25 06:01:07;;;;;;;6.97;5.00;;;;;;;1.50;100.00;95606.47;5029595;28;20022;-56
2021/10/25 06:03:34;;;;;;;10.65;5.50;;;;;;;1.47;100.00;95613.97;5014310;28;20075;-54
2021/10/25 06:06:00;;;;;;;7.43;5.18;;;;;;;1.42;100.00;95612.75;5031951;28;20431;-56
2021/10/25 06:08:25;;;;;;;7.75;5.38;;;;;;;1.37;100.00;95614.34;5033291;28;20032;-62
2021/10/25 06:10:50;;;;;;;7.45;4.82;;;;;;;1.32;100.00;95614.13;5045523;28;20033;-53
2021/10/25 06:13:33;;;;;;;6.28;4.55;;;;;;;1.26;100.00;95623.59;5036411;28;20036;-52
2021/10/25 06:18:35;;;;;;;6.63;4.07;;;;;;;1.17;100.00;95617.66;5030411;28;20547;-60
2021/10/25 06:21:02;;;;;;;7.47;4.07;;;;;;;1.15;100.00;95613.59;5008575;28;20057;-52
2021/10/25 06:23:27;;;;;;;6.80;3.90;;;;;;;1.10;100.00;95622.09;5017080;28;20028;-58
2021/10/25 06:25:53;;;;;;;5.68;3.83;;;;;;;1.03;100.00;95613.31;5011526;28;20403;-61
2021/10/25 06:28:20;;;;;;;5.35;3.70;;;;;;;0.97;100.00;95607.97;4999143;28;20029;-54
2021/10/25 06:30:53;;;;;;;8.38;4.45;;;;;;;0.95;100.00;95599.44;5001218;28;20452;-55
2021/10/25 06:33:19;;;;;;;4.57;3.83;;;;;;;0.97;100.00;95602.69;5011502;28;20603;-53
2021/10/25 06:35:46;;;;;;;6.80;4.00;;;;;;;1.01;100.00;95609.25;5016943;28;20037;-55
2021/10/25 06:38:12;;;;;;;7.68;3.88;;;;;;;1.00;100.00;95608.44;5017351;28;20084;-55
2021/10/25 06:40:38;;;;;;;5.45;3.33;;;;;;;1.03;100.00;95615.13;5009668;28;20100;-54
2021/10/25 06:43:04;;;;;;;5.97;4.45;;;;;;;1.07;100.00;95613.72;4994008;28;20072;-56
2021/10/25 06:45:29;;;;;;;6.70;4.22;;;;;;;1.14;100.00;95617.25;5013726;28;20029;-56
2021/10/25 06:47:55;;;;;;;6.20;4.28;;;;;;;1.20;100.00;95624.41;5006452;28;20519;-59
2021/10/25 06:50:25;;;;;;;7.85;4.25;;;;;;;1.22;100.00;95632.94;5004781;28;20025;-57
2021/10/25 06:53:01;;;;;;;6.57;3.88;;;;;;;1.21;100.00;95641.84;5022290;28;20124;-56
2021/10/25 06:55:27;;;;;;;7.32;4.22;;;;;;;1.18;100.00;95639.59;5015391;28;20059;-52
2021/10/25 06:57:55;;;;;;;3.72;3.00;;;;;;;1.18;100.00;95634.31;5015794;28;20049;-54
2021/10/25 07:00:23;;;;;;;5.85;3.72;;;;;;;1.20;100.00;95639.41;5032838;28;20384;-51
2021/10/25 07:02:49;;;;;;;4.78;3.70;;;;;;;1.24;100.00;95646.75;5033415;28;20468;-53
2021/10/25 07:05:21;;;;;;;5.13;3.75;;;;;;;1.32;100.00;95645.78;5015208;28;20044;-51
2021/10/25 07:07:46;;;;;;;6.37;3.97;;;;;;;1.39;100.00;95638.69;5033238;28;20043;-59
2021/10/25 07:10:12;;;;;;;6.43;4.03;;;;;;;1.54;100.00;95636.78;5015650;28;20362;-54
2021/10/25 07:12:39;;;;;;;4.97;3.60;;;;;;;1.69;100.00;95634.81;5014147;28;20025;-55
2021/10/25 07:15:05;;;;;;;7.70;3.70;;;;;;;1.84;100.00;95636.50;5013147;28;20512;-52
2021/10/25 08:07:11;;;;;;;12.85;8.00;;;;;;;-144.43;100.00;64487.81;5023709;28;20433;-57
2021/10/25 08:12:08;;;;;;;18.33;8.75;;;;;;;-144.43;100.00;64487.81;5034255;28;20065;-51
2021/10/25 08:14:37;;;;;;;12.65;9.07;;;;;;;-144.43;100.00;64487.81;5051866;28;20025;-54
2021/10/25 08:17:03;;;;;;;14.00;8.77;;;;;;;-144.43;100.00;64487.81;5034526;28;20032;-54
2021/10/25 08:19:33;;;;;;;14.93;8.70;;;;;;;-144.43;100.00;64487.81;5050662;28;20037;-53
2021/10/25 08:22:04;;;;;;;13.13;9.25;;;;;;;-144.43;100.00;64487.81;5034604;28;20017;-51
2021/10/25 08:24:41;;;;;;;13.43;8.07;;;;;;;-144.43;100.00;64487.81;5051353;28;20053;-51
2021/10/25 08:27:15;;;;;;;14.60;9.88;;;;;;;-144.43;100.00;64487.81;5051707;28;20040;-54
2021/10/25 08:29:41;;;;;;;15.00;10.32;;;;;;;-144.43;100.00;64487.81;5051345;28;20028;-55
2021/10/25 08:39:46;;;;;;;15.90;11.02;;;;;;;-144.43;100.00;64487.81;5020856;28;20055;-52
2021/10/25 08:42:12;;;;;;;15.95;9.93;;;;;;;-144.43;100.00;64487.81;5034808;28;20111;-58
2021/10/25 08:44:41;;;;;;;14.30;10.55;;;;;;;-144.43;100.00;64487.81;5033289;28;20120;-57
2021/10/25 08:47:08;;;;;;;14.90;9.95;;;;;;;-144.43;100.00;64487.81;5013315;28;20028;-54
2021/10/25 08:49:36;;;;;;;14.13;9.73;;;;;;;-144.43;100.00;64487.81;5031643;28;20074;-54
2021/10/25 08:52:02;;;;;;;14.68;9.70;;;;;;;-144.43;100.00;64487.81;5031500;28;20152;-50
2021/10/25 08:54:33;;;;;;;12.50;9.02;;;;;;;-144.43;100.00;64487.81;5031175;28;20033;-54
2021/10/25 08:57:01;;;;;;;14.60;8.63;;;;;;;-144.43;100.00;64487.81;5031369;28;20080;-56
2021/10/25 08:59:28;;;;;;;11.45;8.98;;;;;;;-144.43;100.00;64487.81;5026156;28;20106;-58
2021/10/25 09:02:09;;;;;;;12.35;8.65;;;;;;;-144.43;100.00;64487.81;5028235;28;20036;-57
2021/10/25 09:04:35;;;;;;;10.82;7.93;;;;;;;-144.43;100.00;64487.81;5016599;28;20563;-57
2021/10/25 09:07:01;;;;;;;12.90;7.55;;;;;;;-144.43;100.00;64487.81;5033628;28;20028;-56
2021/10/25 09:09:28;;;;;;;9.77;7.00;;;;;;;-144.43;100.00;64487.81;5016709;28;20036;-59
2021/10/25 09:12:15;;;;;;;9.90;7.43;;;;;;;-144.43;100.00;64487.81;5033161;28;20021;-58
2021/10/25 09:14:40;;;;;;;11.27;6.75;;;;;;;-144.43;100.00;64487.81;5050903;28;20029;-58
2021/10/25 09:17:07;;;;;;;9.88;6.30;;;;;;;-144.43;100.00;64487.81;5033458;28;20035;-58
2021/10/25 09:19:33;;;;;;;10.73;6.95;;;;;;;-144.43;100.00;64487.81;5033301;28;20021;-60
2021/10/25 09:22:08;;;;;;;14.70;6.85;;;;;;;-144.43;100.00;64487.81;5032756;28;20029;-59
2021/10/25 09:24:35;;;;;;;11.68;6.82;;;;;;;-144.43;100.00;64487.81;5032997;28;20096;-58
2021/10/25 09:27:04;;;;;;;9.13;6.22;;;;;;;-144.43;100.00;64487.81;5033396;28;20032;-58
2021/10/25 09:29:34;;;;;;;10.48;6.82;;;;;;;-144.43;100.00;64487.81;5050698;28;20025;-58
2021/10/25 09:32:07;;;;;;;11.10;7.20;;;;;;;-144.43;100.00;64487.81;5032999;28;20017;-57
2021/10/25 09:34:40;;;;;;;14.10;6.97;;;;;;;-144.43;100.00;64487.81;5033625;28;20043;-58
2021/10/25 09:37:15;;;;;;;;;;;;;;;-144.43;100.00;64487.81;5004962;28;20025;-54
2021/10/25 09:50:10;;;;;;;11.00;6.63;;;;;;;-144.43;100.00;64487.81;5025456;28;20041;-53
2021/10/25 09:52:41;;;;;;;6.85;5.43;;;;;;;-144.43;100.00;64487.81;5050670;28;20044;-52
2021/10/25 09:55:08;;;;;;;12.85;6.13;;;;;;;-144.43;100.00;64487.81;5009084;28;20714;-54
2021/10/25 10:00:12;;;;;;;7.53;5.55;;;;;;;-144.43;100.00;64487.81;5005479;28;20025;-61
2021/10/25 10:02:38;;;;;;;6.88;5.07;;;;;;;-144.43;100.00;64487.81;4998897;28;20022;-55
2021/10/25 10:05:06;;;;;;;8.05;5.13;;;;;;;-144.43;100.00;64487.81;5021449;28;20048;-52
2021/10/25 10:07:33;;;;;;;8.98;5.18;;;;;;;-144.43;100.00;64487.81;5013609;28;20029;-54
2021/10/25 10:09:58;;;;;;;7.60;4.78;;;;;;;-144.43;100.00;64487.81;5011038;28;20086;-54
2021/10/25 10:12:26;;;;;;;6.88;4.80;;;;;;;-144.43;100.00;64487.81;5008210;28;20017;-57
2021/10/25 10:14:55;;;;;;;6.03;4.38;;;;;;;-144.43;100.00;64487.81;5036210;28;20028;-59
2021/10/25 10:17:29;;;;;;;6.97;4.90;;;;;;;-144.43;100.00;64487.81;5020589;28;20392;-60
2021/10/25 10:20:06;;;;;;;6.40;4.80;;;;;;;-144.43;100.00;64487.81;5009334;28;20374;-60
2021/10/25 10:22:39;;;;;;;7.18;4.80;;;;;;;-144.43;100.00;64487.81;5045691;28;20021;-60
2021/10/25 10:25:05;;;;;;;5.97;4.38;;;;;;;-144.43;100.00;64487.81;5032242;28;20029;-60
2021/10/25 10:27:30;;;;;;;6.18;4.22;;;;;;;-144.43;100.00;64487.81;5032504;28;20040;-60
2021/10/25 10:29:59;;;;;;;4.72;3.65;;;;;;;-144.43;100.00;64487.81;5032749;28;20380;-62
2021/10/25 10:32:26;;;;;;;5.15;3.60;;;;;;;-144.43;100.00;64487.81;5050188;28;20043;-62
2021/10/25 10:34:52;;;;;;;9.85;4.47;;;;;;;-144.43;100.00;64487.81;5032058;28;20036;-59
2021/10/25 10:37:21;;;;;;;6.32;4.28;;;;;;;-144.43;100.00;64487.81;5050250;28;20048;-59
2021/10/25 10:40:06;;;;;;;6.55;4.43;;;;;;;-144.43;100.00;64487.81;5050498;28;20035;-61
2021/10/25 10:42:33;;;;;;;5.57;4.40;;;;;;;-144.43;100.00;64487.81;5033630;28;20425;-55
2021/10/25 10:45:03;;;;;;;6.60;4.75;;;;;;;-144.43;100.00;64487.81;5052539;28;20098;-59
2021/10/25 10:47:36;;;;;;;8.13;4.85;;;;;;;-144.43;100.00;64487.81;5046532;28;20124;-58
2021/10/25 10:50:03;;;;;;;6.78;4.70;;;;;;;-144.43;100.00;64487.81;5033758;28;20037;-56
2021/10/25 10:52:41;;;;;;;7.55;5.05;;;;;;;-144.43;100.00;64487.81;4995306;23;20050;-62
2021/10/25 10:55:17;;;;;;;6.40;5.13;;;;;;;15.59;100.00;95200.94;5006335;28;20038;-63
2021/10/25 11:00:22;;;;;;;8.98;5.22;;;;;;;-144.43;100.00;64487.81;4995369;28;20679;-63
2021/10/25 11:02:54;;;;;;;9.35;5.45;;;;;;;-144.43;100.00;64487.81;5005469;28;20069;-60
2021/10/25 11:05:38;;;;;;;8.70;5.28;;;;;;;-144.43;100.00;64487.81;5024592;28;20539;-61
2021/10/25 11:08:08;;;;;;;8.05;5.90;;;;;;;-144.43;100.00;64487.81;5011728;28;20034;-61
2021/10/25 11:10:34;;;;;;;10.27;6.13;;;;;;;-144.43;100.00;64487.81;5015519;28;20117;-60
2021/10/25 11:13:20;;;;;;;11.63;6.47;;;;;;;-144.43;100.00;64487.81;5025767;28;20388;-61
2021/10/25 11:15:53;;;;;;;13.82;7.05;;;;;;;-144.43;100.00;64487.81;5024229;28;20475;-60
2021/10/25 11:18:43;;;;;;;10.85;6.43;;;;;;;-144.43;100.00;64487.81;5033222;28;20028;-61
2021/10/25 11:21:16;;;;;;;10.05;6.13;;;;;;;-144.43;100.00;64487.81;5014939;28;20036;-62
2021/10/25 11:23:52;;;;;;;9.85;6.05;;;;;;;-144.43;100.00;64487.81;5015022;28;20489;-62
2021/10/25 11:26:22;;;;;;;10.98;6.20;;;;;;;-144.43;100.00;64487.81;5032334;28;20036;-60
2021/10/25 11:28:59;;;;;;;11.52;6.70;;;;;;;-144.43;100.00;64487.81;5033212;28;20025;-61
2021/10/25 11:31:25;;;;;;;9.77;6.55;;;;;;;-144.43;100.00;64487.81;5017305;28;20037;-62
2021/10/25 11:33:51;;;;;;;11.55;6.40;;;;;;;-144.43;100.00;64487.81;5017866;28;20022;-61
2021/10/25 11:36:20;;;;;;;11.00;6.22;;;;;;;16.88;100.00;95666.50;5006871;28;20030;-60
2021/10/25 11:38:45;;;;;;;9.32;5.45;;;;;;;16.98;100.00;95735.94;5014178;28;20503;-61
2021/10/25 11:41:19;;;;;;;9.98;5.88;;;;;;;17.13;100.00;95768.22;5023038;28;20026;-62
2021/10/25 11:43:47;;;;;;;8.57;5.32;;;;;;;17.31;100.00;95794.53;5010226;28;20033;-62
2021/10/25 11:46:23;;;;;;;9.50;5.20;;;;;;;-144.43;100.00;64487.81;4994899;28;20037;-62
2021/10/25 11:48:54;;;;;;;9.48;5.28;;;;;;;-144.43;100.00;64487.81;5006478;28;20049;-63
2021/10/25 11:51:20;;;;;;;8.43;5.05;;;;;;;-144.43;100.00;64487.81;4991589;28;20030;-62
2021/10/25 11:53:45;;;;;;;10.45;5.97;;;;;;;-144.43;100.00;64487.81;4974677;28;20026;-63
2021/10/25 11:56:14;;;;;;;9.95;5.47;;;;;;;-144.43;100.00;64487.81;4992546;28;20026;-62
2021/10/25 11:58:41;;;;;;;7.82;5.00;;;;;;;-144.43;100.00;64487.81;4975230;28;20061;-63
2021/10/25 12:01:13;;;;;;;7.22;5.00;;;;;;;-144.43;100.00;64487.81;4979351;28;20040;-60
2021/10/25 12:03:39;;;;;;;7.28;5.25;;;;;;;17.61;100.00;95844.81;5001849;28;20030;-62
2021/10/25 12:06:21;;;;;;;9.73;5.03;;;;;;;17.48;100.00;95848.22;4993702;28;20070;-62
2021/10/25 12:09:02;;;;;;;7.97;5.03;;;;;;;17.10;100.00;95841.88;5008422;28;20064;-61
2021/10/25 12:14:15;;;;;;;8.07;5.57;;;;;;;17.31;100.00;95812.69;5011895;28;20036;-62
2021/10/25 12:16:44;;;;;;;10.00;5.30;;;;;;;17.54;100.00;95816.47;5011863;28;20029;-60
2021/10/25 12:19:10;;;;;;;9.30;5.47;;;;;;;17.65;100.00;95818.75;4993326;28;20030;-62
2021/10/25 12:21:35;;;;;;;7.43;4.88;;;;;;;17.89;100.00;95799.72;5031642;28;20052;-61
2021/10/25 12:24:10;;;;;;;8.52;5.75;;;;;;;18.04;100.00;95803.34;4997556;28;20025;-62
2021/10/25 12:26:36;;;;;;;10.90;6.30;;;;;;;18.09;100.00;95779.66;5014521;28;20029;-62
2021/10/25 12:29:12;;;;;;;9.13;5.82;;;;;;;18.14;100.00;95795.03;5014432;28;20392;-62
2021/10/25 12:31:38;;;;;;;11.15;5.72;;;;;;;18.06;100.00;95782.16;5031536;28;20053;-62
2021/10/25 12:34:04;;;;;;;8.07;5.68;;;;;;;17.98;100.00;95764.63;5031251;28;20480;-62
2021/10/25 12:36:35;;;;;;;8.07;6.20;;;;;;;17.91;100.00;95766.94;4997722;28;20124;-62
2021/10/25 12:39:09;;;;;;;9.35;5.70;;;;;;;18.18;100.00;95766.22;5028133;28;20021;-62
2021/10/25 12:42:04;;;;;;;9.85;5.88;;;;;;;17.84;100.00;95770.00;5019119;28;20053;-62
2021/10/25 12:44:36;;;;;;;10.25;5.95;;;;;;;17.27;100.00;95757.50;5000080;28;20045;-62
2021/10/25 12:47:08;;;;;;;9.00;5.82;;;;;;;16.99;100.00;95741.06;4988814;28;20021;-62
2021/10/25 12:49:37;;;;;;;9.93;6.18;;;;;;;16.83;100.00;95723.41;5020563;28;20021;-60
2021/10/25 12:52:15;;;;;;;10.55;6.15;;;;;;;16.70;100.00;95719.47;5007300;28;20137;-62
2021/10/25 12:54:42;;;;;;;7.93;5.60;;;;;;;16.73;100.00;95708.09;5020309;28;20080;-62
2021/10/25 12:57:23;;;;;;;11.02;6.32;;;;;;;16.88;100.00;95685.44;5009526;28;20038;-61
2021/10/25 12:59:57;;;;;;;11.02;6.57;;;;;;;16.85;100.00;95704.16;5028209;28;20392;-62
2021/10/25 13:02:28;;;;;;;7.80;5.47;;;;;;;17.15;100.00;95681.31;5012246;28;20026;-62
2021/10/25 13:05:23;;;;;;;10.38;6.45;;;;;;;17.31;100.00;95667.28;5007876;28;20025;-62
2021/10/25 13:07:52;;;;;;;12.10;6.25;;;;;;;17.41;100.00;95685.28;5011246;28;20037;-62
2021/10/25 13:10:21;;;;;;;8.73;5.45;;;;;;;17.71;100.00;95694.09;5011532;28;20033;-62
2021/10/25 13:12:47;;;;;;;13.10;6.20;;;;;;;17.94;100.00;95706.72;5011693;28;20116;-62
2021/10/25 13:15:15;;;;;;;11.93;6.32;;;;;;;18.06;100.00;95703.53;5012202;28;20120;-60
2021/10/25 13:17:41;;;;;;;11.02;6.60;;;;;;;18.04;100.00;95714.69;5013170;28;20033;-62